sensor_id;sensor_type;location;lat;lon;timestamp;P1;durP1;ratioP1;P2;durP2;ratioP2
51800;SDS011;37855;53.204;6.568;2022-08-04T00:00:14;12.13;;;3.00;;
51800;SDS011;37855;53.204;6.568;2022-08-04T00:10:52;10.35;;;3.55;;
51800;SDS011;37855;53.204;6.568;2022-08-04T00:13:23;10.90;;;4.03;;
51800;SDS011;37855;53.204;6.568;2022-08-04T00:15:55;14.85;;;3.90;;
51800;SDS011;37855;53.204;6.568;2022-08-04T00:18:26;12.13;;;4.25;;
51800;SDS011;37855;53.204;6.568;2022-08-04T00:20:59;17.88;;;4.03;;
51800;SDS011;37855;53.204;6.568;2022-08-04T00:23:33;12.73;;;3.90;;
51800;SDS011;37855;53.204;6.568;2022-08-04T00:26:01;12.73;;;4.13;;
51800;SDS011;37855;53.204;6.568;2022-08-04T00:28:28;13.77;;;3.95;;
51800;SDS011;37855;53.204;6.568;2022-08-04T00:30:54;17.17;;;4.20;;
51800;SDS011;37855;53.204;6.568;2022-08-04T00:33:20;15.45;;;4.25;;
51800;SDS011;37855;53.204;6.568;2022-08-04T00:35:49;14.23;;;4.22;;
51800;SDS011;37855;53.204;6.568;2022-08-04T00:38:16;13.60;;;4.13;;
51800;SDS011;37855;53.204;6.568;2022-08-04T00:41:03;14.73;;;4.25;;
51800;SDS011;37855;53.204;6.568;2022-08-04T00:48:34;15.70;;;4.20;;
51800;SDS011;37855;53.204;6.568;2022-08-04T00:56:44;11.85;;;4.60;;
51800;SDS011;37855;53.204;6.568;2022-08-04T01:04:53;18.85;;;4.55;;
51800;SDS011;37855;53.204;6.568;2022-08-04T01:16:07;11.93;;;4.78;;
51800;SDS011;37855;53.204;6.568;2022-08-04T01:18:45;13.50;;;4.43;;
51800;SDS011;37855;53.204;6.568;2022-08-04T01:26:42;12.00;;;4.20;;
51800;SDS011;37855;53.204;6.568;2022-08-04T01:29:16;14.10;;;5.00;;
51800;SDS011;37855;53.204;6.568;2022-08-04T01:31:59;12.57;;;4.50;;
51800;SDS011;37855;53.204;6.568;2022-08-04T01:34:28;15.65;;;4.82;;
51800;SDS011;37855;53.204;6.568;2022-08-04T01:37:03;13.50;;;4.88;;
51800;SDS011;37855;53.204;6.568;2022-08-04T01:39:53;13.40;;;4.60;;
51800;SDS011;37855;53.204;6.568;2022-08-04T01:42:33;18.67;;;5.18;;
51800;SDS011;37855;53.204;6.568;2022-08-04T01:45:02;24.52;;;5.00;;
51800;SDS011;37855;53.204;6.568;2022-08-04T01:47:29;15.35;;;4.63;;
51800;SDS011;37855;53.204;6.568;2022-08-04T01:50:01;15.38;;;4.78;;
51800;SDS011;37855;53.204;6.568;2022-08-04T01:52:36;17.05;;;4.90;;
51800;SDS011;37855;53.204;6.568;2022-08-04T01:55:06;13.68;;;4.85;;
51800;SDS011;37855;53.204;6.568;2022-08-04T01:57:45;13.90;;;4.70;;
51800;SDS011;37855;53.204;6.568;2022-08-04T02:00:13;13.18;;;4.70;;
51800;SDS011;37855;53.204;6.568;2022-08-04T02:02:41;11.18;;;4.88;;
51800;SDS011;37855;53.204;6.568;2022-08-04T02:05:19;14.20;;;4.63;;
51800;SDS011;37855;53.204;6.568;2022-08-04T02:18:42;13.05;;;5.38;;
51800;SDS011;37855;53.204;6.568;2022-08-04T02:21:28;15.15;;;5.25;;
51800;SDS011;37855;53.204;6.568;2022-08-04T02:23:58;16.83;;;4.93;;
51800;SDS011;37855;53.204;6.568;2022-08-04T02:26:28;15.38;;;5.35;;
51800;SDS011;37855;53.204;6.568;2022-08-04T02:31:48;14.45;;;5.32;;
51800;SDS011;37855;53.204;6.568;2022-08-04T02:37:02;23.65;;;5.25;;
51800;SDS011;37855;53.204;6.568;2022-08-04T02:39:33;14.25;;;5.13;;
51800;SDS011;37855;53.204;6.568;2022-08-04T02:42:01;16.50;;;4.95;;
51800;SDS011;37855;53.204;6.568;2022-08-04T02:44:28;15.95;;;4.75;;
51800;SDS011;37855;53.204;6.568;2022-08-04T02:46:55;14.63;;;4.97;;
51800;SDS011;37855;53.204;6.568;2022-08-04T02:49:24;15.88;;;5.03;;
51800;SDS011;37855;53.204;6.568;2022-08-04T02:51:51;12.48;;;4.97;;
51800;SDS011;37855;53.204;6.568;2022-08-04T02:54:24;13.90;;;4.80;;
51800;SDS011;37855;53.204;6.568;2022-08-04T02:56:52;20.90;;;5.43;;
51800;SDS011;37855;53.204;6.568;2022-08-04T02:59:22;16.45;;;5.05;;
51800;SDS011;37855;53.204;6.568;2022-08-04T03:01:52;14.13;;;4.82;;
51800;SDS011;37855;53.204;6.568;2022-08-04T03:04:34;12.45;;;5.60;;
51800;SDS011;37855;53.204;6.568;2022-08-04T03:21:21;14.07;;;4.53;;
51800;SDS011;37855;53.204;6.568;2022-08-04T03:32:48;13.10;;;5.00;;
51800;SDS011;37855;53.204;6.568;2022-08-04T03:38:22;11.65;;;4.78;;
51800;SDS011;37855;53.204;6.568;2022-08-04T04:01:07;16.05;;;5.20;;
51800;SDS011;37855;53.204;6.568;2022-08-04T04:09:15;12.75;;;5.05;;
51800;SDS011;37855;53.204;6.568;2022-08-04T04:26:36;14.45;;;5.53;;
51800;SDS011;37855;53.204;6.568;2022-08-04T04:46:42;14.25;;;6.38;;
51800;SDS011;37855;53.204;6.568;2022-08-04T04:49:13;15.50;;;6.47;;
51800;SDS011;37855;53.204;6.568;2022-08-04T04:51:59;15.75;;;6.25;;
51800;SDS011;37855;53.204;6.568;2022-08-04T04:54:33;18.08;;;6.07;;
51800;SDS011;37855;53.204;6.568;2022-08-04T04:57:17;14.57;;;6.10;;
51800;SDS011;37855;53.204;6.568;2022-08-04T04:59:51;17.15;;;6.35;;
51800;SDS011;37855;53.204;6.568;2022-08-04T05:13:34;12.30;;;5.65;;
51800;SDS011;37855;53.204;6.568;2022-08-04T05:16:18;15.82;;;6.18;;
51800;SDS011;37855;53.204;6.568;2022-08-04T05:24:21;21.88;;;6.32;;
51800;SDS011;37855;53.204;6.568;2022-08-04T05:26:51;19.17;;;6.55;;
51800;SDS011;37855;53.204;6.568;2022-08-04T05:31:58;21.27;;;6.20;;
51800;SDS011;37855;53.204;6.568;2022-08-04T05:34:44;15.18;;;5.65;;
51800;SDS011;37855;53.204;6.568;2022-08-04T05:37:17;20.50;;;6.00;;
51800;SDS011;37855;53.204;6.568;2022-08-04T05:39:46;16.63;;;6.50;;
51800;SDS011;37855;53.204;6.568;2022-08-04T05:42:17;15.18;;;5.88;;
51800;SDS011;37855;53.204;6.568;2022-08-04T05:44:46;14.40;;;5.97;;
51800;SDS011;37855;53.204;6.568;2022-08-04T05:47:12;14.48;;;5.88;;
51800;SDS011;37855;53.204;6.568;2022-08-04T05:49:40;16.02;;;5.82;;
51800;SDS011;37855;53.204;6.568;2022-08-04T05:52:07;22.58;;;6.22;;
51800;SDS011;37855;53.204;6.568;2022-08-04T05:54:34;20.88;;;6.10;;
51800;SDS011;37855;53.204;6.568;2022-08-04T05:57:03;17.63;;;6.30;;
51800;SDS011;37855;53.204;6.568;2022-08-04T05:59:31;18.38;;;6.78;;
51800;SDS011;37855;53.204;6.568;2022-08-04T06:01:59;20.23;;;6.18;;
51800;SDS011;37855;53.204;6.568;2022-08-04T06:04:30;20.10;;;6.38;;
51800;SDS011;37855;53.204;6.568;2022-08-04T06:07:03;14.55;;;4.78;;
51800;SDS011;37855;53.204;6.568;2022-08-04T06:09:30;17.63;;;5.80;;
51800;SDS011;37855;53.204;6.568;2022-08-04T06:11:58;19.52;;;5.53;;
51800;SDS011;37855;53.204;6.568;2022-08-04T06:14:27;17.48;;;5.10;;
51800;SDS011;37855;53.204;6.568;2022-08-04T06:17:00;15.80;;;5.85;;
51800;SDS011;37855;53.204;6.568;2022-08-04T06:19:29;14.55;;;6.00;;
51800;SDS011;37855;53.204;6.568;2022-08-04T06:21:58;15.70;;;5.22;;
51800;SDS011;37855;53.204;6.568;2022-08-04T06:24:28;15.27;;;4.53;;
51800;SDS011;37855;53.204;6.568;2022-08-04T06:26:55;14.82;;;4.82;;
51800;SDS011;37855;53.204;6.568;2022-08-04T06:29:22;13.93;;;4.90;;
51800;SDS011;37855;53.204;6.568;2022-08-04T06:32:00;13.55;;;5.32;;
51800;SDS011;37855;53.204;6.568;2022-08-04T06:34:27;11.68;;;4.68;;
51800;SDS011;37855;53.204;6.568;2022-08-04T06:36:54;10.25;;;4.22;;
51800;SDS011;37855;53.204;6.568;2022-08-04T06:39:21;14.90;;;4.93;;
51800;SDS011;37855;53.204;6.568;2022-08-04T06:41:49;17.85;;;5.28;;
51800;SDS011;37855;53.204;6.568;2022-08-04T06:44:16;14.35;;;4.90;;
51800;SDS011;37855;53.204;6.568;2022-08-04T06:46:44;15.38;;;5.22;;
51800;SDS011;37855;53.204;6.568;2022-08-04T06:49:10;17.90;;;5.03;;
51800;SDS011;37855;53.204;6.568;2022-08-04T06:51:38;17.67;;;4.22;;
51800;SDS011;37855;53.204;6.568;2022-08-04T06:54:05;16.98;;;4.53;;
51800;SDS011;37855;53.204;6.568;2022-08-04T06:56:32;17.95;;;3.80;;
51800;SDS011;37855;53.204;6.568;2022-08-04T06:58:59;12.73;;;3.92;;
51800;SDS011;37855;53.204;6.568;2022-08-04T07:01:26;12.00;;;3.85;;
51800;SDS011;37855;53.204;6.568;2022-08-04T07:03:53;9.82;;;4.10;;
51800;SDS011;37855;53.204;6.568;2022-08-04T07:06:20;12.35;;;3.70;;
51800;SDS011;37855;53.204;6.568;2022-08-04T07:08:47;15.20;;;3.75;;
51800;SDS011;37855;53.204;6.568;2022-08-04T07:11:13;14.82;;;4.35;;
51800;SDS011;37855;53.204;6.568;2022-08-04T07:13:39;11.60;;;3.70;;
51800;SDS011;37855;53.204;6.568;2022-08-04T07:16:07;15.88;;;4.47;;
51800;SDS011;37855;53.204;6.568;2022-08-04T07:18:37;14.65;;;3.38;;
51800;SDS011;37855;53.204;6.568;2022-08-04T07:21:02;11.98;;;3.90;;
51800;SDS011;37855;53.204;6.568;2022-08-04T07:23:28;13.80;;;3.25;;
51800;SDS011;37855;53.204;6.568;2022-08-04T07:25:56;13.27;;;3.40;;
51800;SDS011;37855;53.204;6.568;2022-08-04T07:28:26;10.88;;;3.30;;
51800;SDS011;37855;53.204;6.568;2022-08-04T07:30:53;10.27;;;3.50;;
51800;SDS011;37855;53.204;6.568;2022-08-04T07:33:21;16.00;;;3.40;;
51800;SDS011;37855;53.204;6.568;2022-08-04T07:35:48;13.00;;;3.28;;
51800;SDS011;37855;53.204;6.568;2022-08-04T07:38:20;12.38;;;3.70;;
51800;SDS011;37855;53.204;6.568;2022-08-04T07:40:46;7.68;;;2.63;;
51800;SDS011;37855;53.204;6.568;2022-08-04T07:43:13;10.57;;;3.25;;
51800;SDS011;37855;53.204;6.568;2022-08-04T07:45:41;11.43;;;3.65;;
51800;SDS011;37855;53.204;6.568;2022-08-04T07:48:07;11.40;;;3.80;;
51800;SDS011;37855;53.204;6.568;2022-08-04T07:50:34;8.85;;;3.17;;
51800;SDS011;37855;53.204;6.568;2022-08-04T07:53:02;13.90;;;3.10;;
51800;SDS011;37855;53.204;6.568;2022-08-04T07:55:28;13.65;;;3.50;;
51800;SDS011;37855;53.204;6.568;2022-08-04T07:57:55;16.88;;;3.10;;
51800;SDS011;37855;53.204;6.568;2022-08-04T08:00:20;8.88;;;2.95;;
51800;SDS011;37855;53.204;6.568;2022-08-04T08:02:49;9.95;;;2.83;;
51800;SDS011;37855;53.204;6.568;2022-08-04T08:05:18;19.02;;;3.28;;
51800;SDS011;37855;53.204;6.568;2022-08-04T08:07:48;13.23;;;3.25;;
51800;SDS011;37855;53.204;6.568;2022-08-04T08:10:14;10.00;;;2.80;;
51800;SDS011;37855;53.204;6.568;2022-08-04T08:12:41;12.52;;;3.13;;
51800;SDS011;37855;53.204;6.568;2022-08-04T08:15:08;16.00;;;3.42;;
51800;SDS011;37855;53.204;6.568;2022-08-04T08:17:34;9.90;;;2.80;;
51800;SDS011;37855;53.204;6.568;2022-08-04T08:20:00;10.77;;;3.50;;
51800;SDS011;37855;53.204;6.568;2022-08-04T08:22:29;13.13;;;3.95;;
51800;SDS011;37855;53.204;6.568;2022-08-04T08:24:56;11.57;;;4.63;;
51800;SDS011;37855;53.204;6.568;2022-08-04T08:27:21;11.27;;;4.18;;
51800;SDS011;37855;53.204;6.568;2022-08-04T08:29:47;14.13;;;4.60;;
51800;SDS011;37855;53.204;6.568;2022-08-04T08:32:13;15.73;;;4.60;;
51800;SDS011;37855;53.204;6.568;2022-08-04T08:34:40;10.48;;;4.95;;
51800;SDS011;37855;53.204;6.568;2022-08-04T08:40:10;13.77;;;5.25;;
51800;SDS011;37855;53.204;6.568;2022-08-04T08:48:10;11.27;;;4.18;;
51800;SDS011;37855;53.204;6.568;2022-08-04T09:05:01;16.20;;;5.60;;
51800;SDS011;37855;53.204;6.568;2022-08-04T09:11:03;12.77;;;6.35;;
51800;SDS011;37855;53.204;6.568;2022-08-04T09:13:36;13.38;;;5.72;;
51800;SDS011;37855;53.204;6.568;2022-08-04T09:16:13;16.40;;;6.55;;
51800;SDS011;37855;53.204;6.568;2022-08-04T09:18:59;12.10;;;5.30;;
51800;SDS011;37855;53.204;6.568;2022-08-04T09:21:48;14.60;;;6.07;;
51800;SDS011;37855;53.204;6.568;2022-08-04T09:27:15;13.27;;;5.88;;
51800;SDS011;37855;53.204;6.568;2022-08-04T09:32:28;13.10;;;5.65;;
51800;SDS011;37855;53.204;6.568;2022-08-04T09:38:21;15.32;;;4.90;;
51800;SDS011;37855;53.204;6.568;2022-08-04T09:40:57;11.02;;;4.93;;
51800;SDS011;37855;53.204;6.568;2022-08-04T09:46:23;14.45;;;4.95;;
51800;SDS011;37855;53.204;6.568;2022-08-04T09:49:01;12.63;;;4.70;;
51800;SDS011;37855;53.204;6.568;2022-08-04T09:54:42;12.07;;;5.40;;
51800;SDS011;37855;53.204;6.568;2022-08-04T10:00:04;10.45;;;3.40;;
51800;SDS011;37855;53.204;6.568;2022-08-04T10:02:31;11.00;;;3.30;;
51800;SDS011;37855;53.204;6.568;2022-08-04T10:05:01;9.43;;;2.90;;
51800;SDS011;37855;53.204;6.568;2022-08-04T10:10:46;10.85;;;2.53;;
51800;SDS011;37855;53.204;6.568;2022-08-04T10:21:25;7.60;;;2.20;;
51800;SDS011;37855;53.204;6.568;2022-08-04T10:29:18;7.05;;;1.70;;
51800;SDS011;37855;53.204;6.568;2022-08-04T10:32:03;7.28;;;1.98;;
51800;SDS011;37855;53.204;6.568;2022-08-04T10:34:37;13.65;;;2.40;;
51800;SDS011;37855;53.204;6.568;2022-08-04T10:40:05;10.40;;;2.20;;
51800;SDS011;37855;53.204;6.568;2022-08-04T10:42:59;10.27;;;2.15;;
51800;SDS011;37855;53.204;6.568;2022-08-04T10:45:35;13.57;;;2.67;;
51800;SDS011;37855;53.204;6.568;2022-08-04T10:50:48;10.18;;;2.55;;
51800;SDS011;37855;53.204;6.568;2022-08-04T10:53:28;9.52;;;2.30;;
51800;SDS011;37855;53.204;6.568;2022-08-04T10:56:03;10.43;;;2.83;;
51800;SDS011;37855;53.204;6.568;2022-08-04T10:58:38;12.68;;;2.70;;
51800;SDS011;37855;53.204;6.568;2022-08-04T11:01:34;9.38;;;2.53;;
51800;SDS011;37855;53.204;6.568;2022-08-04T11:04:07;9.73;;;2.50;;
51800;SDS011;37855;53.204;6.568;2022-08-04T11:06:53;12.75;;;2.85;;
51800;SDS011;37855;53.204;6.568;2022-08-04T11:09:20;10.10;;;2.08;;
51800;SDS011;37855;53.204;6.568;2022-08-04T11:11:53;13.73;;;2.88;;
51800;SDS011;37855;53.204;6.568;2022-08-04T11:14:28;9.18;;;2.10;;
51800;SDS011;37855;53.204;6.568;2022-08-04T11:17:07;9.80;;;2.00;;
51800;SDS011;37855;53.204;6.568;2022-08-04T11:19:55;13.00;;;2.20;;
51800;SDS011;37855;53.204;6.568;2022-08-04T11:22:38;5.68;;;1.88;;
51800;SDS011;37855;53.204;6.568;2022-08-04T11:25:17;8.63;;;2.15;;
51800;SDS011;37855;53.204;6.568;2022-08-04T11:30:30;10.52;;;2.10;;
51800;SDS011;37855;53.204;6.568;2022-08-04T11:35:51;4.88;;;1.50;;
51800;SDS011;37855;53.204;6.568;2022-08-04T11:38:36;4.63;;;1.50;;
51800;SDS011;37855;53.204;6.568;2022-08-04T11:41:15;6.35;;;1.45;;
51800;SDS011;37855;53.204;6.568;2022-08-04T11:43:53;13.27;;;1.70;;
51800;SDS011;37855;53.204;6.568;2022-08-04T11:46:22;5.00;;;1.60;;
51800;SDS011;37855;53.204;6.568;2022-08-04T11:48:55;6.30;;;1.55;;
51800;SDS011;37855;53.204;6.568;2022-08-04T11:51:23;3.88;;;1.50;;
51800;SDS011;37855;53.204;6.568;2022-08-04T11:53:52;5.38;;;1.60;;
51800;SDS011;37855;53.204;6.568;2022-08-04T11:56:20;5.60;;;1.60;;
51800;SDS011;37855;53.204;6.568;2022-08-04T11:58:45;3.13;;;1.25;;
51800;SDS011;37855;53.204;6.568;2022-08-04T12:01:16;5.30;;;1.10;;
51800;SDS011;37855;53.204;6.568;2022-08-04T12:06:23;7.70;;;1.40;;
51800;SDS011;37855;53.204;6.568;2022-08-04T12:09:17;4.22;;;1.50;;
51800;SDS011;37855;53.204;6.568;2022-08-04T12:20:48;5.70;;;1.30;;
51800;SDS011;37855;53.204;6.568;2022-08-04T12:23:29;5.47;;;1.20;;
51800;SDS011;37855;53.204;6.568;2022-08-04T12:26:04;4.50;;;1.20;;
51800;SDS011;37855;53.204;6.568;2022-08-04T12:28:39;3.83;;;1.00;;
51800;SDS011;37855;53.204;6.568;2022-08-04T12:31:11;4.03;;;1.17;;
51800;SDS011;37855;53.204;6.568;2022-08-04T12:33:44;3.25;;;1.10;;
51800;SDS011;37855;53.204;6.568;2022-08-04T12:36:36;5.68;;;1.25;;
51800;SDS011;37855;53.204;6.568;2022-08-04T12:39:18;4.72;;;1.17;;
51800;SDS011;37855;53.204;6.568;2022-08-04T12:42:01;3.80;;;1.30;;
51800;SDS011;37855;53.204;6.568;2022-08-04T12:44:47;3.05;;;1.08;;
51800;SDS011;37855;53.204;6.568;2022-08-04T12:47:18;13.00;;;1.60;;
51800;SDS011;37855;53.204;6.568;2022-08-04T12:49:49;6.38;;;1.20;;
51800;SDS011;37855;53.204;6.568;2022-08-04T12:52:17;4.15;;;1.02;;
51800;SDS011;37855;53.204;6.568;2022-08-04T12:54:44;3.88;;;1.00;;
51800;SDS011;37855;53.204;6.568;2022-08-04T12:57:16;3.65;;;1.08;;
51800;SDS011;37855;53.204;6.568;2022-08-04T12:59:43;3.42;;;1.10;;
51800;SDS011;37855;53.204;6.568;2022-08-04T13:02:15;6.22;;;1.40;;
51800;SDS011;37855;53.204;6.568;2022-08-04T13:04:53;4.63;;;1.40;;
51800;SDS011;37855;53.204;6.568;2022-08-04T13:07:23;2.50;;;1.00;;
51800;SDS011;37855;53.204;6.568;2022-08-04T13:09:53;5.18;;;1.13;;
51800;SDS011;37855;53.204;6.568;2022-08-04T13:12:25;3.97;;;1.45;;
51800;SDS011;37855;53.204;6.568;2022-08-04T13:14:57;3.53;;;1.10;;
51800;SDS011;37855;53.204;6.568;2022-08-04T13:17:41;2.85;;;1.20;;
51800;SDS011;37855;53.204;6.568;2022-08-04T13:20:23;5.18;;;1.10;;
51800;SDS011;37855;53.204;6.568;2022-08-04T13:22:56;2.40;;;0.90;;
51800;SDS011;37855;53.204;6.568;2022-08-04T13:25:27;13.52;;;1.15;;
51800;SDS011;37855;53.204;6.568;2022-08-04T13:27:54;2.97;;;1.10;;
51800;SDS011;37855;53.204;6.568;2022-08-04T13:30:21;4.07;;;1.10;;
51800;SDS011;37855;53.204;6.568;2022-08-04T13:32:51;3.92;;;1.15;;
51800;SDS011;37855;53.204;6.568;2022-08-04T13:35:21;3.30;;;1.05;;
51800;SDS011;37855;53.204;6.568;2022-08-04T13:37:48;3.15;;;1.20;;
51800;SDS011;37855;53.204;6.568;2022-08-04T13:40:15;4.40;;;1.27;;
51800;SDS011;37855;53.204;6.568;2022-08-04T13:42:45;4.55;;;1.17;;
51800;SDS011;37855;53.204;6.568;2022-08-04T13:45:13;8.63;;;1.63;;
51800;SDS011;37855;53.204;6.568;2022-08-04T13:47:39;3.80;;;1.10;;
51800;SDS011;37855;53.204;6.568;2022-08-04T13:52:34;4.38;;;1.15;;
51800;SDS011;37855;53.204;6.568;2022-08-04T13:55:01;3.15;;;1.33;;
51800;SDS011;37855;53.204;6.568;2022-08-04T13:57:30;4.82;;;1.00;;
51800;SDS011;37855;53.204;6.568;2022-08-04T14:00:05;4.90;;;1.20;;
51800;SDS011;37855;53.204;6.568;2022-08-04T14:02:37;2.55;;;0.88;;
51800;SDS011;37855;53.204;6.568;2022-08-04T14:05:45;3.33;;;1.20;;
51800;SDS011;37855;53.204;6.568;2022-08-04T14:08:54;3.35;;;1.20;;
51800;SDS011;37855;53.204;6.568;2022-08-04T14:11:43;4.40;;;1.20;;
51800;SDS011;37855;53.204;6.568;2022-08-04T14:27:20;11.02;;;2.38;;
51800;SDS011;37855;53.204;6.568;2022-08-04T14:29:46;10.52;;;2.53;;
51800;SDS011;37855;53.204;6.568;2022-08-04T14:32:11;9.07;;;2.35;;
51800;SDS011;37855;53.204;6.568;2022-08-04T14:34:38;11.10;;;2.67;;
51800;SDS011;37855;53.204;6.568;2022-08-04T14:37:05;9.85;;;2.55;;
51800;SDS011;37855;53.204;6.568;2022-08-04T14:39:41;9.10;;;2.72;;
51800;SDS011;37855;53.204;6.568;2022-08-04T14:42:17;9.68;;;2.92;;
51800;SDS011;37855;53.204;6.568;2022-08-04T14:44:53;8.85;;;2.80;;
51800;SDS011;37855;53.204;6.568;2022-08-04T14:50:06;7.18;;;2.50;;
51800;SDS011;37855;53.204;6.568;2022-08-04T14:52:33;7.32;;;3.40;;
51800;SDS011;37855;53.204;6.568;2022-08-04T14:55:13;9.90;;;3.40;;
51800;SDS011;37855;53.204;6.568;2022-08-04T14:57:40;8.27;;;3.45;;
51800;SDS011;37855;53.204;6.568;2022-08-04T15:00:06;10.45;;;3.38;;
51800;SDS011;37855;53.204;6.568;2022-08-04T15:02:32;5.72;;;3.05;;
51800;SDS011;37855;53.204;6.568;2022-08-04T15:05:00;6.40;;;2.58;;
51800;SDS011;37855;53.204;6.568;2022-08-04T15:07:26;7.07;;;3.00;;
51800;SDS011;37855;53.204;6.568;2022-08-04T15:09:53;6.30;;;2.25;;
51800;SDS011;37855;53.204;6.568;2022-08-04T15:12:19;5.88;;;2.80;;
51800;SDS011;37855;53.204;6.568;2022-08-04T15:14:45;5.30;;;2.28;;
51800;SDS011;37855;53.204;6.568;2022-08-04T15:17:11;5.65;;;2.80;;
51800;SDS011;37855;53.204;6.568;2022-08-04T15:19:37;8.50;;;3.08;;
51800;SDS011;37855;53.204;6.568;2022-08-04T15:22:04;6.65;;;2.58;;
51800;SDS011;37855;53.204;6.568;2022-08-04T15:24:30;6.38;;;2.70;;
51800;SDS011;37855;53.204;6.568;2022-08-04T15:26:57;5.82;;;2.33;;
51800;SDS011;37855;53.204;6.568;2022-08-04T15:29:29;6.65;;;2.28;;
51800;SDS011;37855;53.204;6.568;2022-08-04T15:32:00;5.15;;;2.67;;
51800;SDS011;37855;53.204;6.568;2022-08-04T15:34:41;4.95;;;1.90;;
51800;SDS011;37855;53.204;6.568;2022-08-04T15:37:24;5.70;;;1.98;;
51800;SDS011;37855;53.204;6.568;2022-08-04T15:39:57;4.13;;;1.60;;
51800;SDS011;37855;53.204;6.568;2022-08-04T15:45:21;2.28;;;1.20;;
51800;SDS011;37855;53.204;6.568;2022-08-04T15:50:30;5.22;;;1.75;;
51800;SDS011;37855;53.204;6.568;2022-08-04T16:06:00;5.38;;;1.88;;
51800;SDS011;37855;53.204;6.568;2022-08-04T16:19:04;6.72;;;1.70;;
51800;SDS011;37855;53.204;6.568;2022-08-04T16:21:52;5.93;;;1.70;;
51800;SDS011;37855;53.204;6.568;2022-08-04T16:24:20;4.63;;;1.52;;
51800;SDS011;37855;53.204;6.568;2022-08-04T16:26:59;3.55;;;1.42;;
51800;SDS011;37855;53.204;6.568;2022-08-04T16:29:39;7.28;;;2.00;;
51800;SDS011;37855;53.204;6.568;2022-08-04T16:32:10;3.97;;;1.40;;
51800;SDS011;37855;53.204;6.568;2022-08-04T16:34:39;5.97;;;1.80;;
51800;SDS011;37855;53.204;6.568;2022-08-04T16:37:11;6.63;;;2.10;;
51800;SDS011;37855;53.204;6.568;2022-08-04T16:39:38;5.78;;;2.13;;
51800;SDS011;37855;53.204;6.568;2022-08-04T16:50:19;5.78;;;1.80;;
51800;SDS011;37855;53.204;6.568;2022-08-04T16:52:47;4.70;;;1.85;;
51800;SDS011;37855;53.204;6.568;2022-08-04T16:55:17;5.72;;;1.85;;
51800;SDS011;37855;53.204;6.568;2022-08-04T16:57:54;5.30;;;1.83;;
51800;SDS011;37855;53.204;6.568;2022-08-04T17:00:32;5.25;;;2.00;;
51800;SDS011;37855;53.204;6.568;2022-08-04T17:03:00;8.68;;;3.08;;
51800;SDS011;37855;53.204;6.568;2022-08-04T17:05:27;7.15;;;1.77;;
51800;SDS011;37855;53.204;6.568;2022-08-04T17:07:54;7.93;;;1.95;;
51800;SDS011;37855;53.204;6.568;2022-08-04T17:10:31;6.30;;;1.88;;
51800;SDS011;37855;53.204;6.568;2022-08-04T17:13:01;4.43;;;1.63;;
51800;SDS011;37855;53.204;6.568;2022-08-04T17:15:45;4.07;;;1.50;;
51800;SDS011;37855;53.204;6.568;2022-08-04T17:18:17;5.82;;;1.38;;
51800;SDS011;37855;53.204;6.568;2022-08-04T17:20:47;8.32;;;1.80;;
51800;SDS011;37855;53.204;6.568;2022-08-04T17:23:32;11.45;;;1.98;;
51800;SDS011;37855;53.204;6.568;2022-08-04T17:26:04;4.38;;;1.40;;
51800;SDS011;37855;53.204;6.568;2022-08-04T17:28:41;4.75;;;1.40;;
51800;SDS011;37855;53.204;6.568;2022-08-04T17:31:09;8.32;;;1.70;;
51800;SDS011;37855;53.204;6.568;2022-08-04T17:33:36;6.13;;;1.70;;
51800;SDS011;37855;53.204;6.568;2022-08-04T17:36:04;4.63;;;1.75;;
51800;SDS011;37855;53.204;6.568;2022-08-04T17:41:07;6.50;;;1.70;;
51800;SDS011;37855;53.204;6.568;2022-08-04T17:43:36;4.43;;;1.42;;
51800;SDS011;37855;53.204;6.568;2022-08-04T17:48:59;6.47;;;1.70;;
51800;SDS011;37855;53.204;6.568;2022-08-04T17:51:32;5.05;;;1.60;;
51800;SDS011;37855;53.204;6.568;2022-08-04T17:53:59;8.07;;;1.95;;
51800;SDS011;37855;53.204;6.568;2022-08-04T17:56:29;5.05;;;1.60;;
51800;SDS011;37855;53.204;6.568;2022-08-04T17:59:05;4.93;;;1.65;;
51800;SDS011;37855;53.204;6.568;2022-08-04T18:04:21;6.97;;;1.50;;
51800;SDS011;37855;53.204;6.568;2022-08-04T18:07:07;7.45;;;1.92;;
51800;SDS011;37855;53.204;6.568;2022-08-04T18:09:38;9.23;;;2.00;;
51800;SDS011;37855;53.204;6.568;2022-08-04T18:12:20;6.53;;;1.80;;
51800;SDS011;37855;53.204;6.568;2022-08-04T18:14:52;5.80;;;1.85;;
51800;SDS011;37855;53.204;6.568;2022-08-04T18:20:15;7.50;;;2.13;;
51800;SDS011;37855;53.204;6.568;2022-08-04T18:22:44;6.22;;;1.73;;
51800;SDS011;37855;53.204;6.568;2022-08-04T18:25:18;6.70;;;1.58;;
51800;SDS011;37855;53.204;6.568;2022-08-04T18:27:48;7.68;;;2.35;;
51800;SDS011;37855;53.204;6.568;2022-08-04T18:30:18;6.63;;;2.10;;
51800;SDS011;37855;53.204;6.568;2022-08-04T18:32:46;7.88;;;2.40;;
51800;SDS011;37855;53.204;6.568;2022-08-04T18:35:12;5.68;;;2.08;;
51800;SDS011;37855;53.204;6.568;2022-08-04T18:37:38;4.93;;;1.80;;
51800;SDS011;37855;53.204;6.568;2022-08-04T18:40:05;5.43;;;1.88;;
51800;SDS011;37855;53.204;6.568;2022-08-04T18:42:32;7.53;;;1.90;;
51800;SDS011;37855;53.204;6.568;2022-08-04T18:44:58;9.85;;;2.58;;
51800;SDS011;37855;53.204;6.568;2022-08-04T18:47:26;7.80;;;2.20;;
51800;SDS011;37855;53.204;6.568;2022-08-04T18:49:55;6.45;;;2.15;;
51800;SDS011;37855;53.204;6.568;2022-08-04T18:52:24;6.25;;;2.00;;
51800;SDS011;37855;53.204;6.568;2022-08-04T18:54:50;10.90;;;2.58;;
51800;SDS011;37855;53.204;6.568;2022-08-04T18:57:21;9.77;;;2.50;;
51800;SDS011;37855;53.204;6.568;2022-08-04T18:59:48;6.40;;;2.10;;
51800;SDS011;37855;53.204;6.568;2022-08-04T19:02:14;9.38;;;2.30;;
51800;SDS011;37855;53.204;6.568;2022-08-04T19:04:41;8.27;;;2.30;;
51800;SDS011;37855;53.204;6.568;2022-08-04T19:07:08;10.43;;;2.13;;
51800;SDS011;37855;53.204;6.568;2022-08-04T19:09:42;5.28;;;1.80;;
51800;SDS011;37855;53.204;6.568;2022-08-04T19:12:09;9.50;;;2.20;;
51800;SDS011;37855;53.204;6.568;2022-08-04T19:14:36;9.75;;;2.75;;
51800;SDS011;37855;53.204;6.568;2022-08-04T19:17:05;8.40;;;2.50;;
51800;SDS011;37855;53.204;6.568;2022-08-04T19:19:34;6.78;;;2.20;;
51800;SDS011;37855;53.204;6.568;2022-08-04T19:21:59;8.15;;;2.35;;
51800;SDS011;37855;53.204;6.568;2022-08-04T19:24:28;9.63;;;2.60;;
51800;SDS011;37855;53.204;6.568;2022-08-04T19:26:53;11.77;;;2.80;;
51800;SDS011;37855;53.204;6.568;2022-08-04T19:29:22;7.13;;;2.28;;
51800;SDS011;37855;53.204;6.568;2022-08-04T19:35:11;9.45;;;2.45;;
51800;SDS011;37855;53.204;6.568;2022-08-04T19:37:37;6.97;;;2.35;;
51800;SDS011;37855;53.204;6.568;2022-08-04T19:40:07;11.05;;;2.20;;
51800;SDS011;37855;53.204;6.568;2022-08-04T19:42:43;5.47;;;1.85;;
51800;SDS011;37855;53.204;6.568;2022-08-04T19:45:09;8.25;;;2.10;;
51800;SDS011;37855;53.204;6.568;2022-08-04T19:47:36;6.95;;;2.15;;
51800;SDS011;37855;53.204;6.568;2022-08-04T19:50:03;4.93;;;2.00;;
51800;SDS011;37855;53.204;6.568;2022-08-04T19:52:30;6.65;;;2.40;;
51800;SDS011;37855;53.204;6.568;2022-08-04T19:55:00;9.02;;;2.33;;
51800;SDS011;37855;53.204;6.568;2022-08-04T19:57:28;7.90;;;2.28;;
51800;SDS011;37855;53.204;6.568;2022-08-04T19:59:54;7.82;;;2.67;;
51800;SDS011;37855;53.204;6.568;2022-08-04T20:02:19;7.35;;;2.05;;
51800;SDS011;37855;53.204;6.568;2022-08-04T20:04:45;9.55;;;2.38;;
51800;SDS011;37855;53.204;6.568;2022-08-04T20:07:11;12.30;;;2.58;;
51800;SDS011;37855;53.204;6.568;2022-08-04T20:09:37;6.25;;;2.10;;
51800;SDS011;37855;53.204;6.568;2022-08-04T20:12:03;4.78;;;1.83;;
51800;SDS011;37855;53.204;6.568;2022-08-04T20:14:38;8.63;;;2.13;;
51800;SDS011;37855;53.204;6.568;2022-08-04T20:17:06;6.72;;;1.77;;